Time;durP1;ratioP1;P1;durP2;ratioP2;P2;SDS_P1;SDS_P2;PMS_P1;PMS_P2;Temp;Humidity;BMP_temperature;BMP_pressure;BME280_temperature;BME280_humidity;BME280_pressure;Samples;Min_cycle;Max_cycle;Signal;HPM_P1;HPM_P2
2022/08/28 00:00:54;;;;;;;;;;;19.10;99.90;;;;;;5102891;28;20255;-71
2022/08/28 00:03:21;;;;;;;;;;;19.00;99.90;;;;;;5102804;28;19995;-70
2022/08/28 00:05:47;;;;;;;;;;;19.00;99.90;;;;;;5103287;28;19962;-71
2022/08/28 00:08:16;;;;;;;;;;;19.00;99.90;;;;;;5102548;28;19920;-70
2022/08/28 00:10:43;;;;;;;;;;;18.90;99.90;;;;;;5089865;28;20342;-71
2022/08/28 00:13:14;;;;;;;;;;;18.90;99.90;;;;;;5078615;28;19920;-71
2022/08/28 00:15:40;;;;;;;;;;;18.90;99.90;;;;;;5086982;28;20092;-71
2022/08/28 00:18:07;;;;;;;;;;;18.90;99.90;;;;;;5084498;28;19955;-70
2022/08/28 00:20:34;;;;;;;;;;;18.90;99.90;;;;;;5086827;28;19979;-71
2022/08/28 00:23:02;;;;;;;;;;;18.90;99.90;;;;;;5083579;28;20258;-70
2022/08/28 00:25:30;;;;;;;;;;;18.90;99.90;;;;;;5085525;28;19921;-71
2022/08/28 00:27:57;;;;;;;;;;;18.90;99.90;;;;;;5091850;28;20136;-71
2022/08/28 00:30:25;;;;;;;;;;;18.90;99.90;;;;;;5107116;28;20030;-71
2022/08/28 00:32:52;;;;;;;;;;;18.90;99.90;;;;;;5106482;28;20130;-70
2022/08/28 00:35:20;;;;;;;;;;;18.80;99.90;;;;;;5105432;28;20000;-70
2022/08/28 00:37:46;;;;;;;;;;;18.80;99.90;;;;;;5107275;28;19962;-70
2022/08/28 00:40:14;;;;;;;;;;;18.70;99.90;;;;;;5106999;28;19920;-70
2022/08/28 00:42:42;;;;;;;;;;;18.70;99.90;;;;;;5101456;28;19966;-70
2022/08/28 00:45:09;;;;;;;;;;;18.70;99.90;;;;;;5086278;28;19920;-71
2022/08/28 00:47:38;;;;;;;;;;;18.70;99.90;;;;;;5086579;28;20151;-71
2022/08/28 00:50:05;;;;;;;;;;;18.70;99.90;;;;;;5086215;28;19920;-71
2022/08/28 00:52:31;;;;;;;;;;;18.70;99.90;;;;;;5085926;28;20226;-70
2022/08/28 00:55:00;;;;;;;;;;;18.70;99.90;;;;;;5085707;28;19916;-70
2022/08/28 00:57:27;;;;;;;;;;;18.70;99.90;;;;;;5098195;28;19980;-70
2022/08/28 00:59:56;;;;;;;;;;;18.70;99.90;;;;;;5104083;28;19955;-70
2022/08/28 01:02:22;;;;;;;;;;;18.70;99.90;;;;;;5106232;28;19983;-70
2022/08/28 01:04:49;;;;;;;;;;;18.70;99.90;;;;;;5105845;28;19988;-70
2022/08/28 01:07:16;;;;;;;;;;;18.70;99.90;;;;;;5106392;28;19958;-71
2022/08/28 01:09:44;;;;;;;;;;;18.60;99.90;;;;;;5106212;28;19991;-70
2022/08/28 01:12:14;;;;;;;;;;;18.60;99.90;;;;;;5094440;28;19952;-70
2022/08/28 01:14:44;;;;;;;;;;;18.60;99.90;;;;;;5085115;28;20015;-71
2022/08/28 01:17:13;;;;;;;;;;;18.60;99.90;;;;;;5083322;28;20154;-68
2022/08/28 01:19:41;;;;;;;;;;;18.60;99.90;;;;;;5085991;28;19924;-70
2022/08/28 01:22:13;;;;;;;;;;;18.60;99.90;;;;;;5085651;28;19940;-71
2022/08/28 01:24:42;;;;;;;;;;;18.60;99.90;;;;;;5084951;28;19920;-68
2022/08/28 01:27:09;;;;;;;;;;;18.60;99.90;;;;;;5086253;28;19928;-70
2022/08/28 01:29:36;;;;;;;;;;;18.60;99.90;;;;;;5085528;28;19928;-70
2022/08/28 01:32:04;;;;;;;;;;;18.50;99.90;;;;;;5085765;28;19974;-71
2022/08/28 01:34:31;;;;;;;;;;;18.50;99.90;;;;;;5084860;28;19928;-70
2022/08/28 01:36:57;;;;;;;;;;;18.50;99.90;;;;;;5086414;28;19928;-70
2022/08/28 01:39:25;;;;;;;;;;;18.50;99.90;;;;;;5085711;28;19988;-71
2022/08/28 01:41:54;;;;;;;;;;;18.50;99.90;;;;;;5085363;28;19952;-70
2022/08/28 01:44:23;;;;;;;;;;;18.50;99.90;;;;;;5084730;28;19963;-70
2022/08/28 01:46:50;;;;;;;;;;;18.50;99.90;;;;;;5085494;28;19970;-70
2022/08/28 01:49:16;;;;;;;;;;;18.50;99.90;;;;;;5085268;28;19992;-70
2022/08/28 01:51:43;;;;;;;;;;;18.50;99.90;;;;;;5100750;28;19942;-69
2022/08/28 01:54:10;;;;;;;;;;;18.50;99.90;;;;;;5104840;28;19983;-70
2022/08/28 01:56:36;;;;;;;;;;;18.50;99.90;;;;;;5104876;28;19926;-71
2022/08/28 01:59:06;;;;;;;;;;;18.50;99.90;;;;;;5105488;28;19986;-72
2022/08/28 02:01:33;;;;;;;;;;;18.50;99.90;;;;;;5105451;28;19975;-70
2022/08/28 02:03:59;;;;;;;;;;;18.50;99.90;;;;;;5104663;28;19924;-69
2022/08/28 02:06:26;;;;;;;;;;;18.50;99.90;;;;;;5089464;28;20279;-70
2022/08/28 02:08:54;;;;;;;;;;;18.40;99.90;;;;;;5084895;28;19987;-70
2022/08/28 02:11:21;;;;;;;;;;;18.40;99.90;;;;;;5084864;28;20202;-71
2022/08/28 02:13:48;;;;;;;;;;;18.40;99.90;;;;;;5084469;28;20050;-69
2022/08/28 02:16:15;;;;;;;;;;;18.40;99.90;;;;;;5082671;28;19988;-70
2022/08/28 02:18:42;;;;;;;;;;;18.30;99.90;;;;;;5083942;28;19987;-71
2022/08/28 02:21:10;;;;;;;;;;;18.30;99.90;;;;;;5084952;28;19928;-70
2022/08/28 02:23:38;;;;;;;;;;;18.30;99.90;;;;;;5083829;28;19927;-70
2022/08/28 02:26:04;;;;;;;;;;;18.30;99.90;;;;;;5086234;28;19928;-70
2022/08/28 02:28:31;;;;;;;;;;;18.40;99.90;;;;;;5104909;28;19986;-71
2022/08/28 02:30:58;;;;;;;;;;;18.30;99.90;;;;;;5104758;28;20258;-71
2022/08/28 02:33:26;;;;;;;;;;;18.30;99.90;;;;;;5104215;28;20207;-70
2022/08/28 02:35:52;;;;;;;;;;;18.20;99.90;;;;;;5104408;28;19927;-69
2022/08/28 02:38:19;;;;;;;;;;;18.20;99.90;;;;;;5103950;28;19951;-71
2022/08/28 02:40:46;;;;;;;;;;;18.30;99.90;;;;;;5104039;28;19920;-70
2022/08/28 02:43:12;;;;;;;;;;;18.30;99.90;;;;;;5101588;28;19958;-70
2022/08/28 02:45:39;;;;;;;;;;;18.20;99.90;;;;;;5084041;28;19928;-71
2022/08/28 02:48:06;;;;;;;;;;;18.20;99.90;;;;;;5084415;28;19921;-70
2022/08/28 02:50:34;;;;;;;;;;;18.20;99.90;;;;;;5084028;28;20207;-70
2022/08/28 02:53:01;;;;;;;;;;;18.20;99.90;;;;;;5083231;28;19948;-70
2022/08/28 02:55:28;;;;;;;;;;;18.10;99.90;;;;;;5084213;28;20282;-71
2022/08/28 02:57:54;;;;;;;;;;;18.20;99.90;;;;;;5083865;28;20254;-70
2022/08/28 03:00:22;;;;;;;;;;;18.10;99.90;;;;;;5083978;28;19952;-69
2022/08/28 03:02:49;;;;;;;;;;;18.10;99.90;;;;;;5083656;28;19921;-70
2022/08/28 03:05:17;;;;;;;;;;;18.10;99.90;;;;;;5083799;28;20116;-70
2022/08/28 03:07:45;;;;;;;;;;;18.00;99.90;;;;;;5083658;28;19928;-70
2022/08/28 03:10:12;;;;;;;;;;;18.00;99.90;;;;;;5084149;28;20231;-70
2022/08/28 03:12:39;;;;;;;;;;;18.00;99.90;;;;;;5103185;28;20211;-70
2022/08/28 03:15:06;;;;;;;;;;;18.00;99.90;;;;;;5103591;28;19959;-70
2022/08/28 03:17:33;;;;;;;;;;;18.00;99.90;;;;;;5101186;28;19920;-70
2022/08/28 03:19:59;;;;;;;;;;;18.00;99.90;;;;;;5104288;28;19920;-70
2022/08/28 03:25:09;;;;;;;;;;;18.00;99.90;;;;;;5102018;28;19916;-70
2022/08/28 03:27:36;;;;;;;;;;;18.10;99.90;;;;;;5103495;28;19920;-71
2022/08/28 03:30:03;;;;;;;;;;;18.10;99.90;;;;;;5103739;28;19983;-71
2022/08/28 03:32:30;;;;;;;;;;;18.00;99.90;;;;;;5103394;28;19995;-70
2022/08/28 03:34:57;;;;;;;;;;;18.00;99.90;;;;;;5103542;28;19974;-70
2022/08/28 03:37:23;;;;;;;;;;;18.10;99.90;;;;;;5103668;28;19927;-70
2022/08/28 03:39:50;;;;;;;;;;;18.10;99.90;;;;;;5092278;28;19948;-70
2022/08/28 03:42:18;;;;;;;;;;;18.10;99.90;;;;;;5083330;28;20000;-72
2022/08/28 03:44:47;;;;;;;;;;;18.10;99.90;;;;;;5082690;28;19963;-71
2022/08/28 03:47:14;;;;;;;;;;;18.10;99.90;;;;;;5083059;28;19920;-70
2022/08/28 03:49:41;;;;;;;;;;;18.10;99.90;;;;;;5082417;28;19959;-71
2022/08/28 03:52:07;;;;;;;;;;;18.00;99.90;;;;;;5083097;28;19959;-70
2022/08/28 03:54:34;;;;;;;;;;;18.00;99.90;;;;;;5082646;28;19928;-71
2022/08/28 03:57:01;;;;;;;;;;;18.10;99.90;;;;;;5083014;28;19927;-70
2022/08/28 03:59:29;;;;;;;;;;;18.10;99.90;;;;;;5083214;28;19927;-70
2022/08/28 04:01:55;;;;;;;;;;;18.10;99.90;;;;;;5083141;28;19987;-70
2022/08/28 04:04:22;;;;;;;;;;;18.10;99.90;;;;;;5082548;28;19987;-70
2022/08/28 04:06:48;;;;;;;;;;;18.00;99.90;;;;;;5082907;28;20247;-69
2022/08/28 04:09:15;;;;;;;;;;;18.00;99.90;;;;;;5097156;28;19920;-70
2022/08/28 04:11:42;;;;;;;;;;;18.00;99.90;;;;;;5083043;28;20122;-70
2022/08/28 04:14:09;;;;;;;;;;;18.00;99.90;;;;;;5082381;28;19921;-70
2022/08/28 04:16:37;;;;;;;;;;;18.00;99.90;;;;;;5093794;22;19916;-92
2022/08/28 04:19:04;;;;;;;;;;;18.00;99.90;;;;;;5105747;28;19924;-92
2022/08/28 04:21:30;;;;;;;;;;;17.90;99.90;;;;;;5105969;28;20211;-92
2022/08/28 04:23:57;;;;;;;;;;;18.00;99.90;;;;;;5106531;28;20199;-92
2022/08/28 04:26:25;;;;;;;;;;;18.00;99.90;;;;;;5109126;28;19948;-92
2022/08/28 04:28:53;;;;;;;;;;;17.90;99.90;;;;;;5136046;28;19920;-92
2022/08/28 04:31:20;;;;;;;;;;;17.90;99.90;;;;;;5127909;28;19979;-92
2022/08/28 04:33:48;;;;;;;;;;;18.00;99.90;;;;;;5109272;28;20299;-92
2022/08/28 04:36:16;;;;;;;;;;;17.90;99.90;;;;;;5105323;28;19920;-92
2022/08/28 04:38:43;;;;;;;;;;;17.90;99.90;;;;;;5105416;28;19920;-92
2022/08/28 04:41:11;;;;;;;;;;;17.90;99.90;;;;;;5105605;28;19950;-93
2022/08/28 04:43:38;;;;;;;;;;;17.90;99.90;;;;;;5104900;28;19950;-92
2022/08/28 04:46:05;;;;;;;;;;;17.90;99.90;;;;;;5105249;28;19920;-92
2022/08/28 04:48:32;;;;;;;;;;;17.90;99.90;;;;;;5121690;28;19920;-92
2022/08/28 04:51:00;;;;;;;;;;;17.90;99.90;;;;;;5138482;28;19927;-92
2022/08/28 04:53:28;;;;;;;;;;;17.90;99.90;;;;;;5128372;28;19939;-92
2022/08/28 04:55:57;;;;;;;;;;;17.90;99.90;;;;;;5125551;28;19919;-92
2022/08/28 04:58:24;;;;;;;;;;;17.70;99.90;;;;;;5125605;28;19958;-92
2022/08/28 05:00:52;;;;;;;;;;;17.80;99.90;;;;;;5129196;28;19928;-92
2022/08/28 05:03:18;;;;;;;;;;;17.80;99.90;;;;;;5111429;28;19983;-92
2022/08/28 05:05:46;;;;;;;;;;;17.80;99.90;;;;;;5111258;28;19927;-93
2022/08/28 05:08:15;;;;;;;;;;;17.70;99.90;;;;;;5111904;28;19939;-93
2022/08/28 05:10:42;;;;;;;;;;;17.70;99.90;;;;;;5112022;28;19920;-93
2022/08/28 05:13:10;;;;;;;;;;;17.70;99.90;;;;;;5111463;28;20127;-92
2022/08/28 05:15:38;;;;;;;;;;;17.70;99.90;;;;;;5114673;28;19928;-92
2022/08/28 05:18:04;;;;;;;;;;;17.80;99.90;;;;;;5131833;28;19980;-92
2022/08/28 05:20:34;;;;;;;;;;;17.70;99.90;;;;;;5132192;28;19983;-92
2022/08/28 05:23:01;;;;;;;;;;;17.70;99.90;;;;;;5131527;28;19927;-92
2022/08/28 05:25:31;;;;;;;;;;;17.70;99.90;;;;;;5135897;28;19920;-94
2022/08/28 05:27:58;;;;;;;;;;;17.70;99.90;;;;;;5135720;28;19919;-93
2022/08/28 05:30:25;;;;;;;;;;;17.70;99.90;;;;;;5130832;28;19920;-92
2022/08/28 05:32:51;;;;;;;;;;;17.70;99.90;;;;;;5131922;28;19919;-93
2022/08/28 05:35:18;;;;;;;;;;;17.80;99.90;;;;;;5140972;28;19987;-94
2022/08/28 05:37:45;;;;;;;;;;;17.80;99.90;;;;;;5133445;28;19939;-93
2022/08/28 05:40:12;;;;;;;;;;;17.80;99.90;;;;;;5131722;28;20230;-93
2022/08/28 05:42:40;;;;;;;;;;;17.80;99.90;;;;;;5135126;28;19926;-93
2022/08/28 05:45:08;;;;;;;;;;;17.80;99.90;;;;;;5123998;28;19920;-92
2022/08/28 05:47:34;;;;;;;;;;;17.80;99.90;;;;;;5114536;28;19920;-93
2022/08/28 05:50:02;;;;;;;;;;;17.80;99.90;;;;;;5113518;28;19957;-93
2022/08/28 05:52:29;;;;;;;;;;;17.80;99.90;;;;;;5114766;28;19926;-92
2022/08/28 05:54:55;;;;;;;;;;;17.80;99.90;;;;;;5112861;28;20164;-92
2022/08/28 05:57:22;;;;;;;;;;;17.80;99.90;;;;;;5113630;28;19920;-93
2022/08/28 05:59:50;;;;;;;;;;;17.90;99.90;;;;;;5129470;28;19920;-93
2022/08/28 06:02:17;;;;;;;;;;;17.90;99.90;;;;;;5132294;28;19947;-93
2022/08/28 06:04:44;;;;;;;;;;;17.90;99.90;;;;;;5131556;28;20050;-92
2022/08/28 06:07:12;;;;;;;;;;;17.90;99.90;;;;;;5130204;28;19919;-92
2022/08/28 06:09:39;;;;;;;;;;;17.90;99.90;;;;;;5130055;28;19958;-93
2022/08/28 06:12:06;;;;;;;;;;;17.90;99.90;;;;;;5130116;28;19983;-92
2022/08/28 06:14:33;;;;;;;;;;;18.00;99.90;;;;;;5113694;28;20175;-92
2022/08/28 06:17:02;;;;;;;;;;;18.00;99.90;;;;;;5108662;28;19979;-92
2022/08/28 06:19:30;;;;;;;;;;;18.00;99.90;;;;;;5109424;28;20119;-92
2022/08/28 06:21:57;;;;;;;;;;;18.00;99.90;;;;;;5108872;28;20231;-92
2022/08/28 06:24:26;;;;;;;;;;;18.00;99.90;;;;;;5106946;28;20341;-92
2022/08/28 06:26:53;;;;;;;;;;;18.00;99.90;;;;;;5113187;28;19920;-92
2022/08/28 06:29:21;;;;;;;;;;;18.00;99.90;;;;;;5130267;28;19943;-93
2022/08/28 06:31:49;;;;;;;;;;;18.00;99.90;;;;;;5131388;28;19942;-92
2022/08/28 06:34:18;;;;;;;;;;;18.00;99.90;;;;;;5130770;28;19947;-92
2022/08/28 06:36:45;;;;;;;;;;;18.10;99.90;;;;;;5132506;28;19919;-92
2022/08/28 06:39:12;;;;;;;;;;;18.10;99.90;;;;;;5131314;28;19941;-92
2022/08/28 06:41:42;;;;;;;;;;;18.10;99.90;;;;;;5135512;28;19935;-94
2022/08/28 06:44:09;;;;;;;;;;;18.10;99.90;;;;;;5108225;28;19920;-94
2022/08/28 06:46:36;;;;;;;;;;;18.10;99.90;;;;;;5115985;28;19920;-93
2022/08/28 06:49:03;;;;;;;;;;;18.10;99.90;;;;;;5113810;28;19927;-93
2022/08/28 06:51:31;;;;;;;;;;;18.10;99.90;;;;;;5105061;28;19927;-93
2022/08/28 06:53:58;;;;;;;;;;;18.10;99.90;;;;;;5110977;28;19943;-93
2022/08/28 06:56:25;;;;;;;;;;;18.10;99.90;;;;;;5113631;28;20216;-93
2022/08/28 06:58:52;;;;;;;;;;;18.10;99.90;;;;;;5114347;28;19927;-93
2022/08/28 07:01:21;;;;;;;;;;;18.10;99.90;;;;;;5114670;28;19927;-93
2022/08/28 07:03:49;;;;;;;;;;;18.10;99.90;;;;;;5114133;28;19930;-92
2022/08/28 07:06:16;;;;;;;;;;;18.10;99.90;;;;;;5114314;28;19920;-93
2022/08/28 07:08:44;;;;;;;;;;;18.20;99.90;;;;;;5114493;28;19920;-93
2022/08/28 07:11:12;;;;;;;;;;;18.20;99.90;;;;;;5125526;28;19920;-93
2022/08/28 07:13:39;;;;;;;;;;;18.30;99.90;;;;;;5134173;28;19926;-92
2022/08/28 07:16:06;;;;;;;;;;;18.30;99.90;;;;;;5132116;28;19920;-93
2022/08/28 07:18:33;;;;;;;;;;;18.40;99.90;;;;;;5097198;28;19943;-93
2022/08/28 07:21:01;;;;;;;;;;;18.50;99.90;;;;;;5092469;28;19931;-93
2022/08/28 07:23:27;;;;;;;;;;;18.50;99.90;;;;;;5092652;28;19920;-93
2022/08/28 07:25:56;;;;;;;;;;;18.50;99.90;;;;;;5126610;28;19943;-93
2022/08/28 07:28:23;;;;;;;;;;;18.60;99.90;;;;;;5133952;28;19919;-93
2022/08/28 07:30:56;;;;;;;;;;;18.60;99.90;;;;;;5134811;28;19945;-92
2022/08/28 07:33:23;;;;;;;;;;;18.70;99.90;;;;;;5135230;28;19967;-93
2022/08/28 07:35:50;;;;;;;;;;;18.70;99.90;;;;;;5135480;28;19958;-93
2022/08/28 07:38:17;;;;;;;;;;;18.80;99.90;;;;;;5135794;28;19986;-93
2022/08/28 07:40:44;;;;;;;;;;;18.80;99.90;;;;;;5131918;28;19950;-93
2022/08/28 07:45:57;;;;;;;;;;;18.90;99.90;;;;;;5107277;28;19916;-93
2022/08/28 07:48:24;;;;;;;;;;;18.90;99.90;;;;;;5113895;28;19920;-93
2022/08/28 07:50:51;;;;;;;;;;;19.00;99.90;;;;;;5111061;28;19913;-93
2022/08/28 07:53:17;;;;;;;;;;;19.00;99.90;;;;;;5095020;28;19951;-93
2022/08/28 07:55:44;;;;;;;;;;;19.00;99.90;;;;;;5112710;28;19920;-92
2022/08/28 07:58:12;;;;;;;;;;;19.00;99.90;;;;;;5113509;28;19950;-93
2022/08/28 08:00:40;;;;;;;;;;;19.10;99.90;;;;;;5111592;28;19927;-93
2022/08/28 08:03:06;;;;;;;;;;;19.10;99.90;;;;;;5113218;28;19920;-93
2022/08/28 08:05:33;;;;;;;;;;;19.20;99.90;;;;;;5091284;28;19921;-93
2022/08/28 08:08:00;;;;;;;;;;;19.10;99.90;;;;;;5132259;28;19947;-94
2022/08/28 08:10:27;;;;;;;;;;;19.20;99.90;;;;;;5133399;28;20123;-93
2022/08/28 08:12:53;;;;;;;;;;;19.20;99.90;;;;;;5133525;28;19920;-93
2022/08/28 08:15:22;;;;;;;;;;;19.30;99.90;;;;;;5131748;28;19928;-93
2022/08/28 08:17:48;;;;;;;;;;;19.30;99.90;;;;;;5112645;28;19921;-93
2022/08/28 08:20:15;;;;;;;;;;;19.20;99.90;;;;;;5091672;28;19929;-93
2022/08/28 08:22:42;;;;;;;;;;;19.30;99.90;;;;;;5093222;28;20317;-93
2022/08/28 08:25:09;;;;;;;;;;;19.30;99.90;;;;;;5129406;28;19920;-94
2022/08/28 08:27:36;;;;;;;;;;;19.40;99.90;;;;;;5135214;28;19920;-93
2022/08/28 08:30:03;;;;;;;;;;;19.50;99.90;;;;;;5133485;28;19919;-93
2022/08/28 08:32:31;;;;;;;;;;;19.60;99.90;;;;;;5131036;28;19986;-93
2022/08/28 08:34:58;;;;;;;;;;;19.70;99.90;;;;;;5134009;28;19920;-93
2022/08/28 08:37:25;;;;;;;;;;;19.70;99.90;;;;;;5136606;28;19924;-93
2022/08/28 08:39:53;;;;;;;;;;;19.70;99.90;;;;;;5137180;28;19941;-93
2022/08/28 08:42:24;;;;;;;;;;;19.70;99.90;;;;;;5137976;28;19920;-93
2022/08/28 08:44:51;;;;;;;;;;;19.80;99.90;;;;;;5111710;28;19947;-93
2022/08/28 08:47:24;;;;;;;;;;;19.80;99.90;;;;;;5093757;28;19918;-94
2022/08/28 08:49:55;;;;;;;;;;;19.70;99.90;;;;;;5100803;28;19928;-95
2022/08/28 08:52:27;;;;;;;;;;;19.80;99.90;;;;;;5108464;28;19920;-92
2022/08/28 08:55:02;;;;;;;;;;;19.80;99.90;;;;;;5135791;28;19920;-93
2022/08/28 08:57:30;;;;;;;;;;;19.70;99.90;;;;;;5141539;28;20204;-92
2022/08/28 08:59:57;;;;;;;;;;;19.70;99.90;;;;;;5138271;28;19920;-93
2022/08/28 09:02:27;;;;;;;;;;;19.70;99.90;;;;;;5120462;28;19923;-92
2022/08/28 09:04:56;;;;;;;;;;;19.70;99.90;;;;;;5120075;28;19916;-93
2022/08/28 09:07:25;;;;;;;;;;;19.80;99.90;;;;;;5116659;28;19927;-92
2022/08/28 09:09:53;;;;;;;;;;;19.80;99.90;;;;;;5120833;28;19912;-93
2022/08/28 09:12:22;;;;;;;;;;;19.80;99.90;;;;;;5120708;28;19927;-92
2022/08/28 09:14:53;;;;;;;;;;;19.90;99.90;;;;;;5121216;28;19992;-92
2022/08/28 09:17:23;;;;;;;;;;;19.90;99.90;;;;;;5120788;28;19938;-92
2022/08/28 09:19:50;;;;;;;;;;;20.00;99.90;;;;;;5114589;28;19928;-93
2022/08/28 09:22:18;;;;;;;;;;;20.10;99.90;;;;;;5100159;28;19920;-92
2022/08/28 09:24:45;;;;;;;;;;;20.10;99.90;;;;;;5099553;28;19929;-93
2022/08/28 09:27:21;;;;;;;;;;;20.20;99.90;;;;;;5100114;28;19920;-93
2022/08/28 09:29:54;;;;;;;;;;;20.20;99.90;;;;;;5124069;28;19926;-93
2022/08/28 09:32:23;;;;;;;;;;;20.40;99.90;;;;;;5141093;28;19908;-93
2022/08/28 09:35:01;;;;;;;;;;;20.50;99.90;;;;;;5140467;28;19928;-93
2022/08/28 09:37:31;;;;;;;;;;;20.60;99.90;;;;;;5140904;28;19984;-92
2022/08/28 09:40:12;;;;;;;;;;;20.60;99.90;;;;;;5140722;28;19930;-93
2022/08/28 09:45:24;;;;;;;;;;;20.80;99.90;;;;;;5118245;28;19972;-94
2022/08/28 09:47:51;;;;;;;;;;;20.90;99.90;;;;;;5100210;28;19927;-93
2022/08/28 09:50:24;;;;;;;;;;;20.90;99.90;;;;;;5099901;28;19923;-93
2022/08/28 09:52:53;;;;;;;;;;;20.90;99.90;;;;;;5099244;28;19912;-93
2022/08/28 09:55:23;;;;;;;;;;;20.90;99.90;;;;;;5099589;28;19921;-93
2022/08/28 09:57:50;;;;;;;;;;;21.10;99.90;;;;;;5113094;28;19971;-93
2022/08/28 10:00:17;;;;;;;;;;;21.20;99.90;;;;;;5140498;28;19912;-93
2022/08/28 10:02:46;;;;;;;;;;;21.30;99.90;;;;;;5137719;28;19955;-92
2022/08/28 10:05:15;;;;;;;;;;;21.40;99.90;;;;;;5132909;28;19920;-93
2022/08/28 10:07:45;;;;;;;;;;;21.40;99.90;;;;;;5116352;28;19920;-93
2022/08/28 10:10:17;;;;;;;;;;;21.40;99.90;;;;;;5119352;28;19972;-92
2022/08/28 10:12:50;;;;;;;;;;;21.50;99.90;;;;;;5119016;28;19950;-92
2022/08/28 10:15:18;;;;;;;;;;;21.60;99.90;;;;;;5119712;28;19912;-93
2022/08/28 10:18:03;;;;;;;;;;;21.60;99.90;;;;;;5114867;28;19908;-93
2022/08/28 10:20:35;;;;;;;;;;;21.80;99.90;;;;;;5109357;28;19909;-94
2022/08/28 10:23:04;;;;;;;;;;;21.80;99.90;;;;;;5104402;28;19912;-94
2022/08/28 10:25:38;;;;;;;;;;;21.80;99.90;;;;;;5099414;28;19924;-93
2022/08/28 10:28:23;;;;;;;;;;;21.80;99.90;;;;;;5099129;28;19940;-93
2022/08/28 10:30:54;;;;;;;;;;;21.80;99.90;;;;;;5108329;28;19975;-93
2022/08/28 10:33:30;;;;;;;;;;;21.80;99.90;;;;;;5117977;28;19913;-93
2022/08/28 10:36:01;;;;;;;;;;;22.00;99.90;;;;;;5119399;28;19931;-92
2022/08/28 10:38:35;;;;;;;;;;;22.00;99.90;;;;;;5118961;28;19931;-92
2022/08/28 10:41:05;;;;;;;;;;;22.10;99.90;;;;;;5119437;28;19918;-92
2022/08/28 10:43:34;;;;;;;;;;;22.20;99.90;;;;;;5118507;28;19908;-92
2022/08/28 10:46:04;;;;;;;;;;;22.50;99.90;;;;;;5117820;28;19943;-92
2022/08/28 10:48:35;;;;;;;;;;;22.20;99.90;;;;;;5119087;28;20011;-92
2022/08/28 10:51:04;;;;;;;;;;;22.20;99.90;;;;;;5118130;28;19935;-92
2022/08/28 10:53:32;;;;;;;;;;;22.20;99.90;;;;;;5112443;28;19909;-92
2022/08/28 10:56:01;;;;;;;;;;;22.20;99.90;;;;;;5118923;28;20098;-92
2022/08/28 10:58:32;;;;;;;;;;;22.30;99.90;;;;;;5118641;28;19932;-92
2022/08/28 11:01:00;;;;;;;;;;;22.40;99.90;;;;;;5116538;28;19934;-92
2022/08/28 11:03:28;;;;;;;;;;;22.60;99.90;;;;;;5118395;28;19918;-93
2022/08/28 11:05:59;;;;;;;;;;;22.80;99.90;;;;;;5118660;28;19915;-92
2022/08/28 11:08:29;;;;;;;;;;;22.90;99.90;;;;;;5118897;28;19940;-92
2022/08/28 11:10:57;;;;;;;;;;;22.90;99.90;;;;;;5118582;28;19940;-92
2022/08/28 11:13:43;;;;;;;;;;;22.90;99.90;;;;;;5118107;28;19914;-93
2022/08/28 11:16:11;;;;;;;;;;;22.90;99.90;;;;;;5118412;28;19915;-93
2022/08/28 11:18:55;;;;;;;;;;;22.90;99.90;;;;;;5118634;28;19931;-92
2022/08/28 11:21:25;;;;;;;;;;;23.00;99.90;;;;;;5118515;28;19929;-92
2022/08/28 11:23:55;;;;;;;;;;;23.20;99.90;;;;;;5133837;28;19908;-92
2022/08/28 11:26:30;;;;;;;;;;;23.40;99.90;;;;;;5138788;28;19936;-92
2022/08/28 11:28:58;;;;;;;;;;;23.60;99.90;;;;;;5139085;28;19935;-92
2022/08/28 11:31:42;;;;;;;;;;;23.80;99.90;;;;;;5138808;28;19950;-92
2022/08/28 11:34:29;;;;;;;;;;;24.00;99.90;;;;;;5138242;28;19912;-92
2022/08/28 11:37:00;;;;;;;;;;;24.30;99.90;;;;;;5136306;28;19928;-92
2022/08/28 11:39:27;;;;;;;;;;;24.40;99.90;;;;;;5138711;28;19928;-93
2022/08/28 11:42:08;;;;;;;;;;;24.30;99.90;;;;;;5138588;28;19928;-92
2022/08/28 11:44:41;;;;;;;;;;;24.00;99.90;;;;;;5108078;28;19917;-92
2022/08/28 11:47:26;;;;;;;;;;;23.60;99.90;;;;;;5118125;28;19918;-93
2022/08/28 11:49:53;;;;;;;;;;;23.50;99.90;;;;;;5126170;28;19955;-93
2022/08/28 11:52:37;;;;;;;;;;;23.30;99.90;;;;;;5109160;28;19922;-92
2022/08/28 11:55:13;;;;;;;;;;;23.30;99.90;;;;;;5097052;28;19940;-92
2022/08/28 11:57:48;;;;;;;;;;;23.20;99.90;;;;;;5096570;28;19923;-92
2022/08/28 12:00:23;;;;;;;;;;;23.20;99.90;;;;;;5095184;28;19920;-93
2022/08/28 12:02:52;;;;;;;;;;;23.10;99.90;;;;;;5092419;28;19912;-91
2022/08/28 12:05:39;;;;;;;;;;;23.10;99.90;;;;;;5119398;28;19912;-92
2022/08/28 12:08:06;;;;;;;;;;;23.30;99.90;;;;;;5138390;28;19912;-92
2022/08/28 12:10:51;;;;;;;;;;;23.70;99.90;;;;;;5140493;28;19907;-93
2022/08/28 12:13:33;;;;;;;;;;;24.00;99.90;;;;;;5142001;28;19911;-91
2022/08/28 12:16:05;;;;;;;;;;;24.30;99.90;;;;;;5141679;28;19919;-92
2022/08/28 12:18:50;;;;;;;;;;;24.60;99.90;;;;;;5137377;28;19912;-94
2022/08/28 12:21:19;;;;;;;;;;;24.70;99.90;;;;;;5122019;28;19930;-92
2022/08/28 12:23:55;;;;;;;;;;;24.50;99.90;;;;;;5121258;28;19908;-93
2022/08/28 12:26:26;;;;;;;;;;;24.30;99.90;;;;;;5121796;28;19912;-93
2022/08/28 12:28:54;;;;;;;;;;;24.10;99.90;;;;;;5122000;28;19931;-92
2022/08/28 12:34:14;;;;;;;;;;;23.70;99.90;;;;;;5130376;28;19912;-93
2022/08/28 12:36:41;;;;;;;;;;;23.50;99.90;;;;;;5142096;28;19912;-93
2022/08/28 12:39:15;;;;;;;;;;;23.40;99.90;;;;;;5142152;28;19930;-93
2022/08/28 12:41:43;;;;;;;;;;;23.50;99.90;;;;;;5142191;28;19929;-93
2022/08/28 12:44:11;;;;;;;;;;;23.90;99.90;;;;;;5132085;28;19907;-93
2022/08/28 12:46:41;;;;;;;;;;;24.10;99.90;;;;;;5121558;28;19908;-93
2022/08/28 12:49:23;;;;;;;;;;;24.20;99.90;;;;;;5121483;28;19919;-94
2022/08/28 12:51:50;;;;;;;;;;;24.10;99.90;;;;;;5121024;28;19921;-93
2022/08/28 12:54:17;;;;;;;;;;;23.90;99.90;;;;;;5122343;28;19923;-93
2022/08/28 12:56:44;;;;;;;;;;;23.90;99.90;;;;;;5121367;28;19915;-94
2022/08/28 12:59:23;;;;;;;;;;;23.70;99.90;;;;;;5121075;28;19912;-93
2022/08/28 13:01:52;;;;;;;;;;;23.70;99.90;;;;;;5132859;28;19908;-93
2022/08/28 13:04:24;;;;;;;;;;;23.70;99.90;;;;;;5141177;28;19912;-93
2022/08/28 13:06:57;;;;;;;;;;;23.90;99.90;;;;;;5139325;28;19912;-93
2022/08/28 13:09:26;;;;;;;;;;;24.20;99.90;;;;;;5141442;28;19971;-93
2022/08/28 13:11:53;;;;;;;;;;;24.80;99.90;;;;;;5140943;28;19919;-93
2022/08/28 13:14:35;;;;;;;;;;;25.30;99.90;;;;;;5136040;28;19923;-93
2022/08/28 13:17:03;;;;;;;;;;;25.60;99.90;;;;;;5120752;28;19935;-93
2022/08/28 13:19:31;;;;;;;;;;;25.90;99.90;;;;;;5120866;28;19962;-93
2022/08/28 13:22:00;;;;;;;;;;;25.80;99.90;;;;;;5120334;28;19938;-92
2022/08/28 13:24:41;;;;;;;;;;;25.60;99.90;;;;;;5119969;28;19920;-92
2022/08/28 13:27:09;;;;;;;;;;;25.20;99.90;;;;;;5131616;28;19942;-93
2022/08/28 13:29:36;;;;;;;;;;;25.00;99.90;;;;;;5141261;28;19912;-93
2022/08/28 13:32:06;;;;;;;;;;;24.80;99.90;;;;;;5141036;28;19912;-92
2022/08/28 13:34:33;;;;;;;;;;;24.60;99.90;;;;;;5140327;28;19931;-93
2022/08/28 13:37:01;;;;;;;;;;;24.40;99.90;;;;;;5140725;28;19915;-93
2022/08/28 13:39:29;;;;;;;;;;;24.50;99.90;;;;;;5140957;28;19912;-93
2022/08/28 13:41:57;;;;;;;;;;;24.40;99.90;;;;;;5129356;28;19946;-93
2022/08/28 13:44:31;;;;;;;;;;;24.40;99.90;;;;;;5118725;28;19950;-93
2022/08/28 13:46:58;;;;;;;;;;;24.50;99.90;;;;;;5112826;28;19915;-93
2022/08/28 13:49:27;;;;;;;;;;;24.40;99.90;;;;;;5120198;28;19939;-93
2022/08/28 13:51:55;;;;;;;;;;;24.50;99.90;;;;;;5108996;28;19968;-93
2022/08/28 13:54:23;;;;;;;;;;;24.50;99.90;;;;;;5097181;28;19972;-93
2022/08/28 13:56:50;;;;;;;;;;;24.50;99.90;;;;;;5099662;28;19909;-93
2022/08/28 13:59:17;;;;;;;;;;;24.50;99.90;;;;;;5134855;28;19955;-93
2022/08/28 14:04:29;;;;;;;;;;;24.40;99.90;;;;;;5139981;28;19914;-91
2022/08/28 14:06:56;;;;;;;;;;;24.50;99.90;;;;;;5140387;28;19908;-92
2022/08/28 14:09:25;;;;;;;;;;;24.50;99.90;;;;;;5140384;28;19962;-92
2022/08/28 14:11:53;;;;;;;;;;;24.50;99.90;;;;;;5140526;28;19907;-92
2022/08/28 14:14:19;;;;;;;;;;;24.50;99.90;;;;;;5138769;28;19915;-92
2022/08/28 14:16:49;;;;;;;;;;;24.30;99.90;;;;;;5140037;28;19907;-92
2022/08/28 14:19:16;;;;;;;;;;;24.30;99.90;;;;;;5139013;28;19975;-93
2022/08/28 14:21:44;;;;;;;;;;;24.10;99.90;;;;;;5130044;28;19915;-93
2022/08/28 14:24:11;;;;;;;;;;;23.90;99.90;;;;;;5118752;28;19930;-93
2022/08/28 14:26:38;;;;;;;;;;;23.80;99.90;;;;;;5125670;28;19954;-92
2022/08/28 14:29:05;;;;;;;;;;;23.80;99.90;;;;;;5140135;28;19927;-93
2022/08/28 14:31:34;;;;;;;;;;;23.80;99.90;;;;;;5129965;28;19931;-93
2022/08/28 14:34:01;;;;;;;;;;;23.90;99.90;;;;;;5118153;28;20014;-94
2022/08/28 14:36:29;;;;;;;;;;;24.00;99.90;;;;;;5119203;28;19919;-93
2022/08/28 14:38:58;;;;;;;;;;;24.10;99.90;;;;;;5119413;28;19912;-93